sensor_id;sensor_type;location;lat;lon;timestamp;temperature;humidity
26655;DHT22;14278;50.784;4.630;2023-02-01T00:00:44;7.20;99.90
26655;DHT22;14278;50.784;4.630;2023-02-01T00:03:10;7.30;99.90
26655;DHT22;14278;50.784;4.630;2023-02-01T00:05:36;7.40;99.90
26655;DHT22;14278;50.784;4.630;2023-02-01T00:08:02;7.50;99.90
26655;DHT22;14278;50.784;4.630;2023-02-01T00:10:28;7.30;99.90
26655;DHT22;14278;50.784;4.630;2023-02-01T00:12:54;7.50;99.90
26655;DHT22;14278;50.784;4.630;2023-02-01T00:15:20;7.60;99.90
26655;DHT22;14278;50.784;4.630;2023-02-01T00:17:46;7.60;99.90
26655;DHT22;14278;50.784;4.630;2023-02-01T00:20:12;7.50;99.90
26655;DHT22;14278;50.784;4.630;2023-02-01T00:22:38;7.40;99.90
26655;DHT22;14278;50.784;4.630;2023-02-01T00:25:04;7.60;99.90
26655;DHT22;14278;50.784;4.630;2023-02-01T00:27:30;7.60;99.90
26655;DHT22;14278;50.784;4.630;2023-02-01T00:29:56;7.70;99.90
26655;DHT22;14278;50.784;4.630;2023-02-01T00:32:21;7.80;99.90
26655;DHT22;14278;50.784;4.630;2023-02-01T00:34:48;7.80;99.90
26655;DHT22;14278;50.784;4.630;2023-02-01T00:37:14;7.50;99.90
26655;DHT22;14278;50.784;4.630;2023-02-01T00:39:39;7.70;99.90
26655;DHT22;14278;50.784;4.630;2023-02-01T00:42:05;7.70;99.90
26655;DHT22;14278;50.784;4.630;2023-02-01T00:44:31;7.60;99.90
26655;DHT22;14278;50.784;4.630;2023-02-01T00:47:00;7.80;99.90
26655;DHT22;14278;50.784;4.630;2023-02-01T00:49:26;8.00;99.90
26655;DHT22;14278;50.784;4.630;2023-02-01T00:51:52;7.90;99.90
26655;DHT22;14278;50.784;4.630;2023-02-01T00:54:18;7.80;99.90
26655;DHT22;14278;50.784;4.630;2023-02-01T00:56:44;7.70;99.90
26655;DHT22;14278;50.784;4.630;2023-02-01T00:59:13;7.60;99.90
26655;DHT22;14278;50.784;4.630;2023-02-01T01:01:39;7.40;99.90
26655;DHT22;14278;50.784;4.630;2023-02-01T01:04:05;7.60;99.90
26655;DHT22;14278;50.784;4.630;2023-02-01T01:06:34;7.50;99.90
26655;DHT22;14278;50.784;4.630;2023-02-01T01:09:02;7.40;99.90
26655;DHT22;14278;50.784;4.630;2023-02-01T01:11:31;7.40;99.90
26655;DHT22;14278;50.784;4.630;2023-02-01T01:13:58;7.50;99.90
26655;DHT22;14278;50.784;4.630;2023-02-01T01:16:27;7.40;99.90
26655;DHT22;14278;50.784;4.630;2023-02-01T01:18:53;7.40;99.90
26655;DHT22;14278;50.784;4.630;2023-02-01T01:21:19;7.40;99.90
26655;DHT22;14278;50.784;4.630;2023-02-01T01:23:47;7.50;99.90
26655;DHT22;14278;50.784;4.630;2023-02-01T01:26:21;7.60;99.90
26655;DHT22;14278;50.784;4.630;2023-02-01T01:28:48;7.70;99.90
26655;DHT22;14278;50.784;4.630;2023-02-01T01:31:15;7.90;99.90
26655;DHT22;14278;50.784;4.630;2023-02-01T01:33:41;7.70;99.90
26655;DHT22;14278;50.784;4.630;2023-02-01T01:36:10;7.50;99.90
26655;DHT22;14278;50.784;4.630;2023-02-01T01:38:37;7.60;99.90
26655;DHT22;14278;50.784;4.630;2023-02-01T01:41:04;7.50;99.90
26655;DHT22;14278;50.784;4.630;2023-02-01T01:43:50;7.50;99.90
26655;DHT22;14278;50.784;4.630;2023-02-01T01:46:20;7.50;99.90
26655;DHT22;14278;50.784;4.630;2023-02-01T01:48:50;7.50;99.90
26655;DHT22;14278;50.784;4.630;2023-02-01T01:51:20;7.50;99.90
26655;DHT22;14278;50.784;4.630;2023-02-01T01:54:04;7.40;99.90
26655;DHT22;14278;50.784;4.630;2023-02-01T01:56:31;7.30;99.90
26655;DHT22;14278;50.784;4.630;2023-02-01T01:58:59;7.30;99.90
26655;DHT22;14278;50.784;4.630;2023-02-01T02:01:26;7.30;99.90
26655;DHT22;14278;50.784;4.630;2023-02-01T02:03:53;7.20;99.90
26655;DHT22;14278;50.784;4.630;2023-02-01T02:09:04;7.30;99.90
26655;DHT22;14278;50.784;4.630;2023-02-01T02:11:30;7.30;99.90
26655;DHT22;14278;50.784;4.630;2023-02-01T02:13:57;7.50;99.90
26655;DHT22;14278;50.784;4.630;2023-02-01T02:21:53;7.70;99.90
26655;DHT22;14278;50.784;4.630;2023-02-01T02:30:36;7.30;99.90
26655;DHT22;14278;50.784;4.630;2023-02-01T02:33:19;7.60;99.90
26655;DHT22;14278;50.784;4.630;2023-02-01T02:36:04;7.50;99.90
26655;DHT22;14278;50.784;4.630;2023-02-01T02:38:45;7.40;99.90
26655;DHT22;14278;50.784;4.630;2023-02-01T02:41:20;7.30;99.90
26655;DHT22;14278;50.784;4.630;2023-02-01T02:44:34;7.30;99.90
26655;DHT22;14278;50.784;4.630;2023-02-01T02:47:57;7.30;99.90
26655;DHT22;14278;50.784;4.630;2023-02-01T02:50:32;7.20;99.90
26655;DHT22;14278;50.784;4.630;2023-02-01T02:53:23;7.20;99.90
26655;DHT22;14278;50.784;4.630;2023-02-01T02:56:10;7.20;99.90
26655;DHT22;14278;50.784;4.630;2023-02-01T02:58:55;7.30;99.90
26655;DHT22;14278;50.784;4.630;2023-02-01T03:01:40;7.30;99.90
26655;DHT22;14278;50.784;4.630;2023-02-01T03:04:24;7.30;99.90
26655;DHT22;14278;50.784;4.630;2023-02-01T03:06:55;7.40;99.90
26655;DHT22;14278;50.784;4.630;2023-02-01T03:09:36;7.50;99.90
26655;DHT22;14278;50.784;4.630;2023-02-01T03:12:07;7.40;99.90
26655;DHT22;14278;50.784;4.630;2023-02-01T03:14:57;7.00;99.90
26655;DHT22;14278;50.784;4.630;2023-02-01T03:17:31;7.10;99.90
26655;DHT22;14278;50.784;4.630;2023-02-01T03:20:01;7.00;99.90
26655;DHT22;14278;50.784;4.630;2023-02-01T03:22:29;6.90;99.90
26655;DHT22;14278;50.784;4.630;2023-02-01T03:25:04;7.00;99.90
26655;DHT22;14278;50.784;4.630;2023-02-01T03:27:43;7.10;99.90
26655;DHT22;14278;50.784;4.630;2023-02-01T03:30:25;6.90;99.90
26655;DHT22;14278;50.784;4.630;2023-02-01T03:32:56;6.80;99.90
26655;DHT22;14278;50.784;4.630;2023-02-01T03:38:19;6.70;99.90
26655;DHT22;14278;50.784;4.630;2023-02-01T03:40:53;6.80;99.90
26655;DHT22;14278;50.784;4.630;2023-02-01T03:43:23;6.80;99.90
26655;DHT22;14278;50.784;4.630;2023-02-01T03:45:56;6.90;99.90
26655;DHT22;14278;50.784;4.630;2023-02-01T03:48:26;6.80;99.90
26655;DHT22;14278;50.784;4.630;2023-02-01T03:50:57;6.70;99.90
26655;DHT22;14278;50.784;4.630;2023-02-01T03:53:25;6.70;99.90
26655;DHT22;14278;50.784;4.630;2023-02-01T03:55:52;7.00;99.90
26655;DHT22;14278;50.784;4.630;2023-02-01T03:58:21;6.90;99.90
26655;DHT22;14278;50.784;4.630;2023-02-01T04:00:55;6.70;99.90
26655;DHT22;14278;50.784;4.630;2023-02-01T04:03:22;6.50;99.90
26655;DHT22;14278;50.784;4.630;2023-02-01T04:05:49;6.60;99.90
26655;DHT22;14278;50.784;4.630;2023-02-01T04:08:15;6.40;99.90
26655;DHT22;14278;50.784;4.630;2023-02-01T04:10:41;6.40;99.90
26655;DHT22;14278;50.784;4.630;2023-02-01T04:13:07;6.60;99.90
26655;DHT22;14278;50.784;4.630;2023-02-01T04:15:33;6.70;99.90
26655;DHT22;14278;50.784;4.630;2023-02-01T04:18:00;6.60;99.90
26655;DHT22;14278;50.784;4.630;2023-02-01T04:20:26;6.40;99.90
26655;DHT22;14278;50.784;4.630;2023-02-01T04:22:52;6.30;99.90
26655;DHT22;14278;50.784;4.630;2023-02-01T04:25:18;6.40;99.90
26655;DHT22;14278;50.784;4.630;2023-02-01T04:27:44;6.30;99.90
26655;DHT22;14278;50.784;4.630;2023-02-01T04:30:11;6.20;99.90
26655;DHT22;14278;50.784;4.630;2023-02-01T04:32:38;6.30;99.90
26655;DHT22;14278;50.784;4.630;2023-02-01T04:35:04;6.10;99.90
26655;DHT22;14278;50.784;4.630;2023-02-01T04:37:30;6.10;99.90
26655;DHT22;14278;50.784;4.630;2023-02-01T04:39:56;6.00;99.90
26655;DHT22;14278;50.784;4.630;2023-02-01T04:42:22;6.00;99.90
26655;DHT22;14278;50.784;4.630;2023-02-01T04:44:48;6.00;99.90
26655;DHT22;14278;50.784;4.630;2023-02-01T04:47:14;6.10;99.90
26655;DHT22;14278;50.784;4.630;2023-02-01T04:49:41;6.10;99.90
26655;DHT22;14278;50.784;4.630;2023-02-01T04:52:07;6.00;99.90
26655;DHT22;14278;50.784;4.630;2023-02-01T04:54:33;6.10;99.90
26655;DHT22;14278;50.784;4.630;2023-02-01T04:56:59;5.90;99.90
26655;DHT22;14278;50.784;4.630;2023-02-01T04:59:26;5.80;99.90
26655;DHT22;14278;50.784;4.630;2023-02-01T05:01:51;5.70;99.90
26655;DHT22;14278;50.784;4.630;2023-02-01T05:04:18;5.80;99.90
26655;DHT22;14278;50.784;4.630;2023-02-01T05:06:44;5.90;99.90
26655;DHT22;14278;50.784;4.630;2023-02-01T05:09:10;6.00;99.90
26655;DHT22;14278;50.784;4.630;2023-02-01T05:11:36;5.90;99.90
26655;DHT22;14278;50.784;4.630;2023-02-01T05:14:20;5.90;99.90
26655;DHT22;14278;50.784;4.630;2023-02-01T05:16:46;6.00;99.90
26655;DHT22;14278;50.784;4.630;2023-02-01T05:19:12;5.80;99.90
26655;DHT22;14278;50.784;4.630;2023-02-01T05:21:38;5.90;99.90
26655;DHT22;14278;50.784;4.630;2023-02-01T05:24:04;5.80;99.90
26655;DHT22;14278;50.784;4.630;2023-02-01T05:26:41;5.70;99.90
26655;DHT22;14278;50.784;4.630;2023-02-01T05:29:08;5.70;99.90
26655;DHT22;14278;50.784;4.630;2023-02-01T05:31:34;5.70;99.90
26655;DHT22;14278;50.784;4.630;2023-02-01T05:34:00;5.60;99.90
26655;DHT22;14278;50.784;4.630;2023-02-01T05:36:25;5.70;99.90
26655;DHT22;14278;50.784;4.630;2023-02-01T05:38:51;5.50;99.90
26655;DHT22;14278;50.784;4.630;2023-02-01T05:41:18;5.50;99.90
26655;DHT22;14278;50.784;4.630;2023-02-01T05:43:43;5.40;99.90
26655;DHT22;14278;50.784;4.630;2023-02-01T05:46:09;5.50;99.90
26655;DHT22;14278;50.784;4.630;2023-02-01T05:48:41;5.70;99.90
26655;DHT22;14278;50.784;4.630;2023-02-01T05:51:09;5.50;99.90
26655;DHT22;14278;50.784;4.630;2023-02-01T05:53:36;5.70;99.90
26655;DHT22;14278;50.784;4.630;2023-02-01T05:56:02;5.70;99.90
26655;DHT22;14278;50.784;4.630;2023-02-01T05:58:27;5.50;99.90
26655;DHT22;14278;50.784;4.630;2023-02-01T06:00:53;5.40;99.90
26655;DHT22;14278;50.784;4.630;2023-02-01T06:03:19;5.50;99.90
26655;DHT22;14278;50.784;4.630;2023-02-01T06:05:46;5.50;99.90
26655;DHT22;14278;50.784;4.630;2023-02-01T06:08:12;5.40;99.90
26655;DHT22;14278;50.784;4.630;2023-02-01T06:10:38;5.40;99.90
26655;DHT22;14278;50.784;4.630;2023-02-01T06:13:05;5.30;99.90
26655;DHT22;14278;50.784;4.630;2023-02-01T06:15:34;5.30;99.90
26655;DHT22;14278;50.784;4.630;2023-02-01T06:18:00;5.30;99.90
26655;DHT22;14278;50.784;4.630;2023-02-01T06:20:26;5.30;99.90
26655;DHT22;14278;50.784;4.630;2023-02-01T06:22:52;5.20;99.90
26655;DHT22;14278;50.784;4.630;2023-02-01T06:25:18;5.20;99.90
26655;DHT22;14278;50.784;4.630;2023-02-01T06:27:45;5.20;99.90
26655;DHT22;14278;50.784;4.630;2023-02-01T06:30:11;5.20;99.90
26655;DHT22;14278;50.784;4.630;2023-02-01T06:32:41;5.40;99.90
26655;DHT22;14278;50.784;4.630;2023-02-01T06:35:08;5.50;99.90
26655;DHT22;14278;50.784;4.630;2023-02-01T06:37:37;5.40;99.90
26655;DHT22;14278;50.784;4.630;2023-02-01T06:40:03;5.30;99.90
26655;DHT22;14278;50.784;4.630;2023-02-01T06:42:29;5.10;99.90
26655;DHT22;14278;50.784;4.630;2023-02-01T06:44:55;5.20;99.90
26655;DHT22;14278;50.784;4.630;2023-02-01T06:47:21;5.50;99.90
26655;DHT22;14278;50.784;4.630;2023-02-01T06:49:46;5.50;99.90
26655;DHT22;14278;50.784;4.630;2023-02-01T06:52:12;5.50;99.90
26655;DHT22;14278;50.784;4.630;2023-02-01T06:54:38;5.60;99.90
26655;DHT22;14278;50.784;4.630;2023-02-01T06:57:04;5.50;99.90
26655;DHT22;14278;50.784;4.630;2023-02-01T06:59:30;5.60;99.90
26655;DHT22;14278;50.784;4.630;2023-02-01T07:01:56;5.40;99.90
26655;DHT22;14278;50.784;4.630;2023-02-01T07:04:21;5.40;99.90
26655;DHT22;14278;50.784;4.630;2023-02-01T07:06:48;5.40;99.90
26655;DHT22;14278;50.784;4.630;2023-02-01T07:09:14;5.40;99.90
26655;DHT22;14278;50.784;4.630;2023-02-01T07:11:40;5.30;99.90
26655;DHT22;14278;50.784;4.630;2023-02-01T07:14:12;5.20;99.90
26655;DHT22;14278;50.784;4.630;2023-02-01T07:16:38;5.10;99.90
26655;DHT22;14278;50.784;4.630;2023-02-01T07:19:05;5.10;99.90
26655;DHT22;14278;50.784;4.630;2023-02-01T07:21:30;5.40;99.90
26655;DHT22;14278;50.784;4.630;2023-02-01T07:23:58;5.50;99.90
26655;DHT22;14278;50.784;4.630;2023-02-01T07:26:23;5.40;99.90
26655;DHT22;14278;50.784;4.630;2023-02-01T07:28:49;5.30;99.90
26655;DHT22;14278;50.784;4.630;2023-02-01T07:31:17;5.30;99.90
26655;DHT22;14278;50.784;4.630;2023-02-01T07:33:45;5.30;99.90
26655;DHT22;14278;50.784;4.630;2023-02-01T07:36:15;5.30;99.90
26655;DHT22;14278;50.784;4.630;2023-02-01T07:38:42;5.40;99.90
26655;DHT22;14278;50.784;4.630;2023-02-01T07:41:08;5.30;99.90
26655;DHT22;14278;50.784;4.630;2023-02-01T07:43:35;5.40;99.90
26655;DHT22;14278;50.784;4.630;2023-02-01T07:46:03;5.40;99.90
26655;DHT22;14278;50.784;4.630;2023-02-01T07:48:29;5.60;99.90
26655;DHT22;14278;50.784;4.630;2023-02-01T07:51:04;5.50;99.90
26655;DHT22;14278;50.784;4.630;2023-02-01T07:53:31;5.60;99.90
26655;DHT22;14278;50.784;4.630;2023-02-01T07:55:58;5.60;99.90
26655;DHT22;14278;50.784;4.630;2023-02-01T07:58:24;5.50;99.90
26655;DHT22;14278;50.784;4.630;2023-02-01T08:00:51;5.50;99.90
26655;DHT22;14278;50.784;4.630;2023-02-01T08:03:35;5.40;99.90
26655;DHT22;14278;50.784;4.630;2023-02-01T08:06:01;5.50;99.90
26655;DHT22;14278;50.784;4.630;2023-02-01T08:08:27;5.70;99.90
26655;DHT22;14278;50.784;4.630;2023-02-01T08:11:01;5.70;99.90
26655;DHT22;14278;50.784;4.630;2023-02-01T08:13:27;5.70;99.90
26655;DHT22;14278;50.784;4.630;2023-02-01T08:16:01;5.70;99.90
26655;DHT22;14278;50.784;4.630;2023-02-01T08:18:27;6.00;99.90
26655;DHT22;14278;50.784;4.630;2023-02-01T08:20:54;6.10;99.90
26655;DHT22;14278;50.784;4.630;2023-02-01T08:23:21;6.40;99.90
26655;DHT22;14278;50.784;4.630;2023-02-01T08:25:47;6.40;99.90
26655;DHT22;14278;50.784;4.630;2023-02-01T08:28:13;6.40;99.90
26655;DHT22;14278;50.784;4.630;2023-02-01T08:30:39;6.70;99.90
26655;DHT22;14278;50.784;4.630;2023-02-01T08:33:08;6.70;99.90
26655;DHT22;14278;50.784;4.630;2023-02-01T08:35:38;6.60;99.90
26655;DHT22;14278;50.784;4.630;2023-02-01T08:38:04;6.50;99.90
26655;DHT22;14278;50.784;4.630;2023-02-01T08:40:30;6.50;99.90
26655;DHT22;14278;50.784;4.630;2023-02-01T08:42:56;6.50;99.90
26655;DHT22;14278;50.784;4.630;2023-02-01T08:45:25;6.40;99.90
26655;DHT22;14278;50.784;4.630;2023-02-01T08:47:52;6.70;99.90
26655;DHT22;14278;50.784;4.630;2023-02-01T08:50:20;6.60;99.90
26655;DHT22;14278;50.784;4.630;2023-02-01T08:52:46;6.70;99.90
26655;DHT22;14278;50.784;4.630;2023-02-01T08:55:12;6.70;99.90
26655;DHT22;14278;50.784;4.630;2023-02-01T08:57:39;6.70;99.90
26655;DHT22;14278;50.784;4.630;2023-02-01T09:00:07;6.90;99.90
26655;DHT22;14278;50.784;4.630;2023-02-01T09:02:33;7.10;99.90
26655;DHT22;14278;50.784;4.630;2023-02-01T09:04:59;7.00;99.90
26655;DHT22;14278;50.784;4.630;2023-02-01T09:07:25;7.10;99.90
26655;DHT22;14278;50.784;4.630;2023-02-01T09:09:51;7.20;99.90
26655;DHT22;14278;50.784;4.630;2023-02-01T09:12:20;7.50;99.90
26655;DHT22;14278;50.784;4.630;2023-02-01T09:14:46;7.60;99.90
26655;DHT22;14278;50.784;4.630;2023-02-01T09:17:11;7.60;99.90
26655;DHT22;14278;50.784;4.630;2023-02-01T09:19:39;7.30;99.90
26655;DHT22;14278;50.784;4.630;2023-02-01T09:22:05;7.40;99.90
26655;DHT22;14278;50.784;4.630;2023-02-01T09:24:31;7.60;99.90
26655;DHT22;14278;50.784;4.630;2023-02-01T09:26:57;8.20;99.90
26655;DHT22;14278;50.784;4.630;2023-02-01T09:29:22;8.30;99.90
26655;DHT22;14278;50.784;4.630;2023-02-01T09:31:48;8.20;99.90
26655;DHT22;14278;50.784;4.630;2023-02-01T09:34:15;8.20;99.90
26655;DHT22;14278;50.784;4.630;2023-02-01T09:36:41;8.50;99.90
26655;DHT22;14278;50.784;4.630;2023-02-01T09:39:06;9.20;99.90
26655;DHT22;14278;50.784;4.630;2023-02-01T09:47:29;8.90;99.90
26655;DHT22;14278;50.784;4.630;2023-02-01T09:50:00;8.90;99.90
26655;DHT22;14278;50.784;4.630;2023-02-01T09:55:30;9.10;99.90
26655;DHT22;14278;50.784;4.630;2023-02-01T09:58:07;9.70;99.90
26655;DHT22;14278;50.784;4.630;2023-02-01T10:00:36;10.10;99.90
26655;DHT22;14278;50.784;4.630;2023-02-01T10:03:03;10.00;99.90
26655;DHT22;14278;50.784;4.630;2023-02-01T10:08:23;9.50;99.90
26655;DHT22;14278;50.784;4.630;2023-02-01T10:10:52;9.40;99.90
26655;DHT22;14278;50.784;4.630;2023-02-01T10:22:18;10.10;99.90
26655;DHT22;14278;50.784;4.630;2023-02-01T10:24:41;10.10;99.90
26655;DHT22;14278;50.784;4.630;2023-02-01T10:27:14;9.90;99.90
26655;DHT22;14278;50.784;4.630;2023-02-01T10:29:46;10.10;99.90
26655;DHT22;14278;50.784;4.630;2023-02-01T10:32:22;10.20;99.90
26655;DHT22;14278;50.784;4.630;2023-02-01T10:34:59;10.40;99.90
26655;DHT22;14278;50.784;4.630;2023-02-01T10:37:33;10.50;99.90
26655;DHT22;14278;50.784;4.630;2023-02-01T10:42:48;10.80;99.90
26655;DHT22;14278;50.784;4.630;2023-02-01T10:45:19;11.60;99.90
26655;DHT22;14278;50.784;4.630;2023-02-01T10:47:46;11.90;99.90
26655;DHT22;14278;50.784;4.630;2023-02-01T10:53:20;11.80;99.90
26655;DHT22;14278;50.784;4.630;2023-02-01T10:55:53;11.50;99.90
26655;DHT22;14278;50.784;4.630;2023-02-01T11:00:58;11.80;99.90
26655;DHT22;14278;50.784;4.630;2023-02-01T11:03:44;11.90;99.90
26655;DHT22;14278;50.784;4.630;2023-02-01T11:06:30;11.90;99.90
26655;DHT22;14278;50.784;4.630;2023-02-01T11:08:59;11.80;99.90
26655;DHT22;14278;50.784;4.630;2023-02-01T11:11:26;12.10;99.90
26655;DHT22;14278;50.784;4.630;2023-02-01T11:14:13;11.60;99.90
26655;DHT22;14278;50.784;4.630;2023-02-01T11:16:39;12.00;99.90
26655;DHT22;14278;50.784;4.630;2023-02-01T11:19:06;11.90;99.90
26655;DHT22;14278;50.784;4.630;2023-02-01T11:21:33;11.40;99.90
26655;DHT22;14278;50.784;4.630;2023-02-01T11:24:11;11.70;99.90
26655;DHT22;14278;50.784;4.630;2023-02-01T11:26:44;11.40;99.90
26655;DHT22;14278;50.784;4.630;2023-02-01T11:29:13;11.20;99.90
26655;DHT22;14278;50.784;4.630;2023-02-01T11:31:43;10.90;99.90
26655;DHT22;14278;50.784;4.630;2023-02-01T11:34:24;10.60;99.90
26655;DHT22;14278;50.784;4.630;2023-02-01T11:36:50;10.20;99.90
26655;DHT22;14278;50.784;4.630;2023-02-01T11:39:26;10.70;99.90
26655;DHT22;14278;50.784;4.630;2023-02-01T11:44:34;11.30;99.90
26655;DHT22;14278;50.784;4.630;2023-02-01T11:49:47;11.40;99.90
26655;DHT22;14278;50.784;4.630;2023-02-01T12:00:55;11.40;99.90
26655;DHT22;14278;50.784;4.630;2023-02-01T12:06:23;10.90;99.90
26655;DHT22;14278;50.784;4.630;2023-02-01T12:09:07;11.10;99.90
26655;DHT22;14278;50.784;4.630;2023-02-01T12:15:10;11.20;99.90
26655;DHT22;14278;50.784;4.630;2023-02-01T12:18:01;11.20;99.90
26655;DHT22;14278;50.784;4.630;2023-02-01T12:20:45;10.80;99.90
26655;DHT22;14278;50.784;4.630;2023-02-01T12:26:45;11.50;99.90
26655;DHT22;14278;50.784;4.630;2023-02-01T12:30:02;11.50;99.90
26655;DHT22;14278;50.784;4.630;2023-02-01T12:34:59;12.40;99.90
26655;DHT22;14278;50.784;4.630;2023-02-01T12:37:51;12.70;99.90
26655;DHT22;14278;50.784;4.630;2023-02-01T12:43:16;12.50;99.90
26655;DHT22;14278;50.784;4.630;2023-02-01T12:45:58;12.90;99.90
26655;DHT22;14278;50.784;4.630;2023-02-01T12:48:42;13.00;99.90
26655;DHT22;14278;50.784;4.630;2023-02-01T12:51:18;12.70;99.90
26655;DHT22;14278;50.784;4.630;2023-02-01T12:54:00;12.70;99.90
26655;DHT22;14278;50.784;4.630;2023-02-01T12:56:36;12.60;99.90
26655;DHT22;14278;50.784;4.630;2023-02-01T12:59:11;13.00;99.90
26655;DHT22;14278;50.784;4.630;2023-02-01T13:01:43;13.50;99.90
26655;DHT22;14278;50.784;4.630;2023-02-01T13:04:25;13.50;99.90
26655;DHT22;14278;50.784;4.630;2023-02-01T13:06:59;13.30;99.90
26655;DHT22;14278;50.784;4.630;2023-02-01T13:09:36;12.90;99.90
26655;DHT22;14278;50.784;4.630;2023-02-01T13:12:14;12.50;99.90
26655;DHT22;14278;50.784;4.630;2023-02-01T13:17:29;12.80;99.90
26655;DHT22;14278;50.784;4.630;2023-02-01T13:22:37;13.20;99.90
26655;DHT22;14278;50.784;4.630;2023-02-01T13:27:37;13.50;99.90
26655;DHT22;14278;50.784;4.630;2023-02-01T13:43:27;11.80;99.90
26655;DHT22;14278;50.784;4.630;2023-02-01T13:46:04;11.70;99.90
26655;DHT22;14278;50.784;4.630;2023-02-01T13:48:40;11.40;99.90
26655;DHT22;14278;50.784;4.630;2023-02-01T13:51:07;11.50;99.90
26655;DHT22;14278;50.784;4.630;2023-02-01T13:53:35;11.70;99.90
26655;DHT22;14278;50.784;4.630;2023-02-01T13:56:20;11.30;99.90
26655;DHT22;14278;50.784;4.630;2023-02-01T13:58:48;11.40;99.90
26655;DHT22;14278;50.784;4.630;2023-02-01T14:03:54;11.50;99.90
26655;DHT22;14278;50.784;4.630;2023-02-01T14:11:40;11.10;99.90
26655;DHT22;14278;50.784;4.630;2023-02-01T14:16:44;11.00;99.90
26655;DHT22;14278;50.784;4.630;2023-02-01T14:21:57;11.10;99.90
26655;DHT22;14278;50.784;4.630;2023-02-01T14:24:29;11.10;99.90
26655;DHT22;14278;50.784;4.630;2023-02-01T14:27:07;11.20;99.90
26655;DHT22;14278;50.784;4.630;2023-02-01T14:29:42;11.30;99.90
26655;DHT22;14278;50.784;4.630;2023-02-01T14:32:22;11.00;99.90
26655;DHT22;14278;50.784;4.630;2023-02-01T14:34:56;11.00;99.90
26655;DHT22;14278;50.784;4.630;2023-02-01T14:37:26;11.20;99.90
26655;DHT22;14278;50.784;4.630;2023-02-01T14:40:02;11.20;99.90
26655;DHT22;14278;50.784;4.630;2023-02-01T14:42:36;11.10;99.90
26655;DHT22;14278;50.784;4.630;2023-02-01T14:47:51;10.70;99.90
26655;DHT22;14278;50.784;4.630;2023-02-01T14:50:38;10.90;99.90
26655;DHT22;14278;50.784;4.630;2023-02-01T14:55:45;10.70;99.90
26655;DHT22;14278;50.784;4.630;2023-02-01T15:00:47;10.30;99.90
26655;DHT22;14278;50.784;4.630;2023-02-01T15:06:26;10.20;99.90
26655;DHT22;14278;50.784;4.630;2023-02-01T15:08:57;10.30;99.90
26655;DHT22;14278;50.784;4.630;2023-02-01T15:11:24;10.30;99.90
26655;DHT22;14278;50.784;4.630;2023-02-01T15:13:51;10.40;99.90
26655;DHT22;14278;50.784;4.630;2023-02-01T15:16:21;10.40;99.90
26655;DHT22;14278;50.784;4.630;2023-02-01T15:18:47;10.50;99.90
26655;DHT22;14278;50.784;4.630;2023-02-01T15:21:21;10.40;99.90
26655;DHT22;14278;50.784;4.630;2023-02-01T15:23:48;10.30;99.90
26655;DHT22;14278;50.784;4.630;2023-02-01T15:26:28;10.00;99.90
26655;DHT22;14278;50.784;4.630;2023-02-01T15:28:54;10.10;99.90
26655;DHT22;14278;50.784;4.630;2023-02-01T15:31:39;10.00;99.90
26655;DHT22;14278;50.784;4.630;2023-02-01T15:34:10;10.10;99.90
26655;DHT22;14278;50.784;4.630;2023-02-01T15:36:37;10.00;99.90
26655;DHT22;14278;50.784;4.630;2023-02-01T15:41:58;9.90;99.90
26655;DHT22;14278;50.784;4.630;2023-02-01T15:44:33;9.90;99.90
26655;DHT22;14278;50.784;4.630;2023-02-01T15:47:04;9.90;99.90
26655;DHT22;14278;50.784;4.630;2023-02-01T15:49:36;10.10;99.90
26655;DHT22;14278;50.784;4.630;2023-02-01T15:52:03;9.90;99.90
26655;DHT22;14278;50.784;4.630;2023-02-01T15:54:43;9.80;99.90
26655;DHT22;14278;50.784;4.630;2023-02-01T15:57:12;9.70;99.90
26655;DHT22;14278;50.784;4.630;2023-02-01T15:59:45;9.70;99.90
26655;DHT22;14278;50.784;4.630;2023-02-01T16:02:38;9.80;99.90
26655;DHT22;14278;50.784;4.630;2023-02-01T16:05:34;9.70;99.90
26655;DHT22;14278;50.784;4.630;2023-02-01T16:08:11;9.80;99.90
26655;DHT22;14278;50.784;4.630;2023-02-01T16:10:40;9.80;99.90
26655;DHT22;14278;50.784;4.630;2023-02-01T16:13:07;9.90;99.90
26655;DHT22;14278;50.784;4.630;2023-02-01T16:15:33;9.90;99.90
26655;DHT22;14278;50.784;4.630;2023-02-01T16:17:59;9.90;99.90
26655;DHT22;14278;50.784;4.630;2023-02-01T16:20:25;9.70;99.90
26655;DHT22;14278;50.784;4.630;2023-02-01T16:22:51;9.60;99.90
26655;DHT22;14278;50.784;4.630;2023-02-01T16:25:17;9.60;99.90
26655;DHT22;14278;50.784;4.630;2023-02-01T16:27:43;9.70;99.90
26655;DHT22;14278;50.784;4.630;2023-02-01T16:30:09;9.50;99.90
26655;DHT22;14278;50.784;4.630;2023-02-01T16:32:37;9.70;99.90
26655;DHT22;14278;50.784;4.630;2023-02-01T16:35:21;9.90;99.90
26655;DHT22;14278;50.784;4.630;2023-02-01T16:37:48;9.90;99.90
26655;DHT22;14278;50.784;4.630;2023-02-01T16:40:15;9.80;99.90
26655;DHT22;14278;50.784;4.630;2023-02-01T16:42:41;9.70;99.90
26655;DHT22;14278;50.784;4.630;2023-02-01T16:45:08;9.60;99.90
26655;DHT22;14278;50.784;4.630;2023-02-01T16:47:37;9.70;99.90
26655;DHT22;14278;50.784;4.630;2023-02-01T16:50:04;9.70;99.90
26655;DHT22;14278;50.784;4.630;2023-02-01T16:52:30;9.70;99.90
26655;DHT22;14278;50.784;4.630;2023-02-01T16:54:56;9.70;99.90
26655;DHT22;14278;50.784;4.630;2023-02-01T16:57:22;9.70;99.90
26655;DHT22;14278;50.784;4.630;2023-02-01T16:59:49;9.60;99.90
26655;DHT22;14278;50.784;4.630;2023-02-01T17:02:17;9.70;99.90
26655;DHT22;14278;50.784;4.630;2023-02-01T17:04:47;9.60;99.90
26655;DHT22;14278;50.784;4.630;2023-02-01T17:07:16;9.50;99.90
26655;DHT22;14278;50.784;4.630;2023-02-01T17:09:42;9.60;99.90
26655;DHT22;14278;50.784;4.630;2023-02-01T17:12:22;9.50;99.90
26655;DHT22;14278;50.784;4.630;2023-02-01T17:14:48;9.60;99.90
26655;DHT22;14278;50.784;4.630;2023-02-01T17:17:16;9.60;99.90
26655;DHT22;14278;50.784;4.630;2023-02-01T17:19:47;9.40;99.90
26655;DHT22;14278;50.784;4.630;2023-02-01T17:22:16;9.40;99.90
26655;DHT22;14278;50.784;4.630;2023-02-01T17:24:42;9.30;99.90
26655;DHT22;14278;50.784;4.630;2023-02-01T17:27:08;9.20;99.90
26655;DHT22;14278;50.784;4.630;2023-02-01T17:29:34;9.20;99.90
26655;DHT22;14278;50.784;4.630;2023-02-01T17:32:00;9.10;99.90
26655;DHT22;14278;50.784;4.630;2023-02-01T17:34:27;9.30;99.90
26655;DHT22;14278;50.784;4.630;2023-02-01T17:36:53;9.40;99.90
26655;DHT22;14278;50.784;4.630;2023-02-01T17:39:19;9.30;99.90
26655;DHT22;14278;50.784;4.630;2023-02-01T17:42:04;9.30;99.90
26655;DHT22;14278;50.784;4.630;2023-02-01T17:44:31;9.30;99.90
26655;DHT22;14278;50.784;4.630;2023-02-01T17:46:57;9.20;99.90
26655;DHT22;14278;50.784;4.630;2023-02-01T17:49:24;9.10;99.90
26655;DHT22;14278;50.784;4.630;2023-02-01T17:51:51;8.90;99.90
26655;DHT22;14278;50.784;4.630;2023-02-01T17:54:17;9.10;99.90
26655;DHT22;14278;50.784;4.630;2023-02-01T17:56:45;9.00;99.90
26655;DHT22;14278;50.784;4.630;2023-02-01T17:59:13;9.00;99.90
26655;DHT22;14278;50.784;4.630;2023-02-01T18:01:40;9.00;99.90
26655;DHT22;14278;50.784;4.630;2023-02-01T18:04:11;9.10;99.90